Houghton, Washington
Current Conditions -  °F | °C
As of 4:53 PM on Sunday 21 Dec 2014 (Local Time) from KBFI Reporting Station
Overcast Overcast  
Wind Chill: 54°   Ceiling: 12000
Heat Index: 54°   Visibility: 10mi
Dew Point: 46°   Wind: 6mph
Humidity: 75%   Direction: 150°SSE
Pressure: 30.02"   Gusts: NA
Location:  47.6755°N, 122.187°W
Report Text: KBFI 220053Z 15005KT 10SM SCT022 OVC120 12/08 A3002 RMK AO2 PRESFR SLP166 T01220078
Loading
Personal Weather Stations






























Interactive Weather Map New forecast layout! Learn more

10-Day Weather Forecast

Advertisements
Track Severe Weather on mobile